Time;durP1;ratioP1;P1;durP2;ratioP2;P2;SDS_P1;SDS_P2;PMS_P1;PMS_P2;Temp;Humidity;BMP_temperature;BMP_pressure;BME280_temperature;BME280_humidity;BME280_pressure;Samples;Min_cycle;Max_cycle;Signal;HPM_P1;HPM_P2
2021/04/07 00:01:54;;;;;;;6.60;2.67;;;;;;;;;;4973898;28;20074;-86
2021/04/07 00:04:22;;;;;;;6.03;2.67;;;;;;;;;;4974961;28;20484;-85
2021/04/07 00:06:50;;;;;;;6.28;3.05;;;;;;;;;;4969827;28;20109;-87
2021/04/07 00:09:18;;;;;;;8.02;3.22;;;;;;;;;;4973810;28;20070;-87
2021/04/07 00:11:46;;;;;;;5.63;2.42;;;;;;;;;;4973973;28;20057;-87
2021/04/07 00:14:14;;;;;;;9.55;3.42;;;;;;;;;;4958558;28;20109;-84
2021/04/07 00:16:43;;;;;;;4.80;2.60;;;;;;;;;;4974118;28;20050;-87
2021/04/07 00:19:11;;;;;;;5.80;3.00;;;;;;;;;;4973925;28;20331;-83
2021/04/07 00:21:39;;;;;;;14.38;3.00;;;;;;;;;;4975719;28;20061;-87
2021/04/07 00:24:08;;;;;;;3.72;2.42;;;;;;;;;;4974521;28;20055;-84
2021/04/07 00:26:35;;;;;;;5.88;2.80;;;;;;;;;;4975243;28;20086;-86
2021/04/07 00:29:03;;;;;;;6.30;3.15;;;;;;;;;;4973953;28;20054;-85
2021/04/07 00:31:31;;;;;;;4.95;2.75;;;;;;;;;;4978351;28;20050;-87
2021/04/07 00:33:59;;;;;;;5.63;2.67;;;;;;;;;;4977165;28;20537;-85
2021/04/07 00:36:27;;;;;;;8.25;2.97;;;;;;;;;;4973438;28;20046;-87
2021/04/07 00:38:54;;;;;;;6.60;2.80;;;;;;;;;;4973437;28;20086;-86
2021/04/07 00:41:24;;;;;;;5.80;2.72;;;;;;;;;;4976202;28;20050;-86
2021/04/07 00:43:51;;;;;;;5.97;2.80;;;;;;;;;;4974468;28;20425;-88
2021/04/07 00:46:19;;;;;;;5.28;2.92;;;;;;;;;;4974979;28;20131;-84
2021/04/07 00:48:47;;;;;;;6.75;2.80;;;;;;;;;;4972937;28;20047;-86
2021/04/07 00:51:15;;;;;;;5.65;2.88;;;;;;;;;;4973597;28;20059;-87
2021/04/07 00:53:42;;;;;;;5.10;2.80;;;;;;;;;;4976275;28;20134;-88
2021/04/07 00:56:10;;;;;;;7.55;2.85;;;;;;;;;;4976328;28;20508;-88
2021/04/07 00:58:39;;;;;;;4.55;2.80;;;;;;;;;;4979853;28;20057;-86
2021/04/07 01:01:07;;;;;;;7.22;3.28;;;;;;;;;;4976178;28;20051;-88
2021/04/07 01:03:35;;;;;;;5.28;2.92;;;;;;;;;;4996275;23;20058;-60
2021/04/07 01:06:02;;;;;;;4.63;2.97;;;;;;;;;;5005789;28;20078;-61
2021/04/07 01:08:30;;;;;;;6.18;3.20;;;;;;;;;;5021706;28;20060;-60
2021/04/07 01:10:57;;;;;;;9.48;3.20;;;;;;;;;;5010342;28;20046;-60
2021/04/07 01:13:25;;;;;;;6.90;3.25;;;;;;;;;;5010030;28;20064;-60
2021/04/07 01:15:54;;;;;;;6.68;3.05;;;;;;;;;;5013859;28;20057;-60
2021/04/07 01:18:22;;;;;;;5.35;2.97;;;;;;;;;;5013350;28;20552;-61
2021/04/07 01:20:50;;;;;;;4.38;2.60;;;;;;;;;;5011099;28;20140;-60
2021/04/07 01:23:18;;;;;;;4.18;2.83;;;;;;;;;;5010807;28;20085;-60
2021/04/07 01:25:46;;;;;;;4.85;2.97;;;;;;;;;;5010241;28;20230;-60
2021/04/07 01:28:14;;;;;;;5.07;2.97;;;;;;;;;;5010114;28;20053;-60
2021/04/07 01:30:51;;;;;;;6.28;2.85;;;;;;;;;;5010059;28;20046;-60
2021/04/07 01:33:20;;;;;;;5.07;2.83;;;;;;;;;;5010730;28;20144;-60
2021/04/07 01:35:48;;;;;;;7.72;2.53;;;;;;;;;;5004984;28;20054;-60
2021/04/07 01:38:16;;;;;;;5.82;3.10;;;;;;;;;;5004130;28;20050;-60
2021/04/07 01:40:45;;;;;;;6.22;2.85;;;;;;;;;;5009175;28;20057;-60
2021/04/07 01:43:13;;;;;;;3.80;2.92;;;;;;;;;;5009566;28;20125;-60
2021/04/07 01:45:40;;;;;;;4.32;2.70;;;;;;;;;;5009941;28;20052;-60
2021/04/07 01:48:09;;;;;;;5.80;2.55;;;;;;;;;;5009191;28;20038;-60
2021/04/07 01:50:36;;;;;;;5.47;2.38;;;;;;;;;;5009982;28;20042;-61
2021/04/07 01:53:04;;;;;;;4.13;2.50;;;;;;;;;;5006832;28;20124;-61
2021/04/07 01:55:32;;;;;;;4.95;2.58;;;;;;;;;;5010192;28;20081;-60
2021/04/07 01:58:00;;;;;;;6.20;2.85;;;;;;;;;;5007160;28;20060;-60
2021/04/07 02:00:28;;;;;;;5.90;2.88;;;;;;;;;;5001155;28;20046;-60
2021/04/07 02:02:56;;;;;;;5.53;2.97;;;;;;;;;;5008491;28;20097;-60
2021/04/07 02:05:23;;;;;;;4.88;3.58;;;;;;;;;;5009216;28;20077;-61
2021/04/07 02:07:51;;;;;;;6.63;3.20;;;;;;;;;;5001490;28;20112;-61
2021/04/07 02:10:18;;;;;;;5.80;3.30;;;;;;;;;;5009032;28;20405;-60
2021/04/07 02:12:50;;;;;;;5.95;3.80;;;;;;;;;;5009313;28;20131;-61
2021/04/07 02:15:18;;;;;;;11.63;3.47;;;;;;;;;;5008625;28;20077;-60
2021/04/07 02:17:46;;;;;;;9.77;4.00;;;;;;;;;;5008693;28;20347;-60
2021/04/07 02:20:15;;;;;;;5.72;3.20;;;;;;;;;;5009062;28;20084;-60
2021/04/07 02:22:42;;;;;;;8.23;4.28;;;;;;;;;;5009860;28;20054;-60
2021/04/07 02:25:11;;;;;;;8.43;3.67;;;;;;;;;;5008844;28;20046;-60
2021/04/07 02:27:40;;;;;;;7.05;4.03;;;;;;;;;;5007383;28;20523;-60
2021/04/07 02:30:08;;;;;;;8.65;3.47;;;;;;;;;;5009090;28;20121;-60
2021/04/07 02:32:36;;;;;;;9.13;4.07;;;;;;;;;;5008759;28;20656;-59
2021/04/07 02:35:05;;;;;;;6.75;4.15;;;;;;;;;;5008843;28;20053;-60
2021/04/07 02:37:32;;;;;;;7.13;3.65;;;;;;;;;;5007685;28;20069;-59
2021/04/07 02:40:00;;;;;;;7.35;4.13;;;;;;;;;;5008124;28;20468;-60
2021/04/07 02:42:28;;;;;;;6.97;4.30;;;;;;;;;;5008037;28;20576;-60
2021/04/07 02:44:56;;;;;;;5.53;3.40;;;;;;;;;;5009314;28;20077;-60
2021/04/07 02:47:23;;;;;;;6.60;4.10;;;;;;;;;;5007186;28;20505;-60
2021/04/07 02:49:51;;;;;;;6.65;3.75;;;;;;;;;;5009590;28;20073;-60
2021/04/07 02:52:20;;;;;;;6.47;3.67;;;;;;;;;;5008226;28;20509;-60
2021/04/07 02:54:48;;;;;;;5.93;3.70;;;;;;;;;;5008406;28;20512;-60
2021/04/07 02:57:15;;;;;;;6.80;4.07;;;;;;;;;;5006538;28;21663;-60
2021/04/07 02:59:43;;;;;;;6.57;3.85;;;;;;;;;;5002703;28;20046;-60
2021/04/07 03:02:11;;;;;;;9.30;3.97;;;;;;;;;;5007858;28;20143;-60
2021/04/07 03:04:38;;;;;;;5.95;3.80;;;;;;;;;;5008831;28;20453;-60
2021/04/07 03:07:06;;;;;;;6.70;3.83;;;;;;;;;;5004670;28;20460;-60
2021/04/07 03:09:34;;;;;;;6.82;4.70;;;;;;;;;;5002653;28;20056;-61
2021/04/07 03:12:02;;;;;;;8.13;3.97;;;;;;;;;;5007876;28;20140;-60
2021/04/07 03:14:29;;;;;;;11.90;4.15;;;;;;;;;;5009022;28;20082;-60
2021/04/07 03:17:00;;;;;;;5.90;3.50;;;;;;;;;;5006864;28;20050;-60
2021/04/07 03:19:28;;;;;;;10.45;3.85;;;;;;;;;;5007566;28;20049;-60
2021/04/07 03:21:56;;;;;;;6.13;3.83;;;;;;;;;;5008207;28;20065;-60
2021/04/07 03:24:23;;;;;;;7.90;4.03;;;;;;;;;;5008677;28;20052;-60
2021/04/07 03:26:52;;;;;;;7.30;3.72;;;;;;;;;;5020154;28;20160;-61
2021/04/07 03:29:19;;;;;;;5.95;3.75;;;;;;;;;;5009084;28;20408;-60
2021/04/07 03:31:47;;;;;;;8.52;4.18;;;;;;;;;;5007494;28;20378;-60
2021/04/07 03:34:15;;;;;;;6.10;3.92;;;;;;;;;;5007701;28;20375;-60
2021/04/07 03:36:42;;;;;;;8.77;4.03;;;;;;;;;;5008880;28;20042;-59
2021/04/07 03:39:10;;;;;;;9.38;3.67;;;;;;;;;;5007738;28;20449;-60
2021/04/07 03:41:37;;;;;;;7.00;3.42;;;;;;;;;;5008404;28;20034;-59
2021/04/07 03:44:06;;;;;;;6.45;3.95;;;;;;;;;;5008847;28;20124;-59
2021/04/07 03:46:34;;;;;;;6.07;3.80;;;;;;;;;;5007970;28;20607;-60
2021/04/07 03:49:02;;;;;;;9.32;3.97;;;;;;;;;;5005226;28;20042;-60
2021/04/07 03:51:29;;;;;;;5.35;3.67;;;;;;;;;;5007809;28;20374;-60
2021/04/07 03:53:57;;;;;;;11.50;4.25;;;;;;;;;;5007012;28;20045;-59
2021/04/07 03:56:25;;;;;;;13.10;3.80;;;;;;;;;;4998141;28;20421;-59
2021/04/07 03:58:52;;;;;;;8.15;4.13;;;;;;;;;;5006863;28;20057;-60
2021/04/07 04:01:20;;;;;;;8.23;3.85;;;;;;;;;;5007305;28;20584;-60
2021/04/07 04:03:58;;;;;;;1.90;1.80;;;;;;;;;;3882891;28;10023474;-60
2021/04/07 04:06:26;;;;;;;6.90;3.58;;;;;;;;;;1718436;28;10002067;-60
2021/04/07 04:08:54;;;;;;;4.80;3.50;;;;;;;;;;4987434;28;20050;-60
2021/04/07 04:11:22;;;;;;;5.15;3.47;;;;;;;;;;4987084;28;20042;-60
2021/04/07 04:13:50;;;;;;;6.28;4.10;;;;;;;;;;4988037;28;20054;-60
2021/04/07 04:16:17;;;;;;;6.65;4.05;;;;;;;;;;4987747;28;20053;-60
2021/04/07 04:18:45;;;;;;;5.18;3.55;;;;;;;;;;4988158;28;20054;-60
2021/04/07 04:21:13;;;;;;;7.07;4.00;;;;;;;;;;4987800;28;20050;-61
2021/04/07 04:23:40;;;;;;;9.10;4.25;;;;;;;;;;4973290;28;20068;-60
2021/04/07 04:26:08;;;;;;;6.55;4.28;;;;;;;;;;4987778;28;20501;-61
2021/04/07 04:28:36;;;;;;;5.35;3.90;;;;;;;;;;4986964;28;20545;-61
2021/04/07 04:31:05;;;;;;;9.32;4.55;;;;;;;;;;4987419;28;20042;-61
2021/04/07 04:33:32;;;;;;;9.80;4.50;;;;;;;;;;4987637;28;20062;-60
2021/04/07 04:36:01;;;;;;;6.00;3.55;;;;;;;;;;4987418;28;20057;-60
2021/04/07 04:38:28;;;;;;;5.82;3.58;;;;;;;;;;5001200;28;20053;-61
2021/04/07 04:40:56;;;;;;;5.13;3.63;;;;;;;;;;4990002;28;20501;-60
2021/04/07 04:43:24;;;;;;;7.50;3.53;;;;;;;;;;4984931;28;20512;-61
2021/04/07 04:45:52;;;;;;;6.90;3.92;;;;;;;;;;4981022;28;20096;-61
2021/04/07 04:48:23;;;;;;;6.97;3.60;;;;;;;;;;4980371;28;20053;-60
2021/04/07 04:50:51;;;;;;;6.28;3.55;;;;;;;;;;4984153;28;20060;-60
2021/04/07 04:53:19;;;;;;;6.20;4.00;;;;;;;;;;4984986;28;20496;-61
2021/04/07 04:55:47;;;;;;;7.75;3.92;;;;;;;;;;4983904;28;20061;-61
2021/04/07 04:58:14;;;;;;;5.78;3.53;;;;;;;;;;4982648;28;20153;-61
2021/04/07 05:00:42;;;;;;;7.93;4.05;;;;;;;;;;4983397;28;20050;-61
2021/04/07 05:03:10;;;;;;;7.78;3.67;;;;;;;;;;4982829;28;20133;-60
2021/04/07 05:05:37;;;;;;;6.03;3.75;;;;;;;;;;4999634;28;20062;-60
2021/04/07 05:08:06;;;;;;;8.73;4.40;;;;;;;;;;4993890;28;20049;-60
2021/04/07 05:10:35;;;;;;;6.20;3.28;;;;;;;;;;5003698;28;20053;-60
2021/04/07 05:13:02;;;;;;;8.55;3.40;;;;;;;;;;5004581;28;20057;-60
2021/04/07 05:15:30;;;;;;;7.30;4.22;;;;;;;;;;5001880;28;20541;-62
2021/04/07 05:17:58;;;;;;;8.27;4.07;;;;;;;;;;4999303;28;20053;-62
2021/04/07 05:20:25;;;;;;;7.60;3.88;;;;;;;;;;5000353;28;20057;-61
2021/04/07 05:22:54;;;;;;;6.13;3.42;;;;;;;;;;4990199;28;20043;-60
2021/04/07 05:25:22;;;;;;;6.22;3.70;;;;;;;;;;4990388;28;20564;-60
2021/04/07 05:27:50;;;;;;;10.70;4.32;;;;;;;;;;4998298;28;20053;-61
2021/04/07 05:30:18;;;;;;;8.65;4.25;;;;;;;;;;4996637;28;20565;-60
2021/04/07 05:32:45;;;;;;;7.35;3.55;;;;;;;;;;4991259;28;20399;-61
2021/04/07 05:35:14;;;;;;;9.25;4.15;;;;;;;;;;4992227;28;20136;-60
2021/04/07 05:37:41;;;;;;;5.55;3.60;;;;;;;;;;4999486;28;20146;-61
2021/04/07 05:40:09;;;;;;;8.27;3.97;;;;;;;;;;5003417;28;20271;-60
2021/04/07 05:42:37;;;;;;;10.82;4.68;;;;;;;;;;5003824;28;20042;-61
2021/04/07 05:45:07;;;;;;;6.85;4.22;;;;;;;;;;5003581;28;20457;-60
2021/04/07 05:47:34;;;;;;;9.27;4.55;;;;;;;;;;5002607;28;20049;-60
2021/04/07 05:50:02;;;;;;;6.97;4.45;;;;;;;;;;5003169;28;20045;-60
2021/04/07 05:52:29;;;;;;;7.32;4.47;;;;;;;;;;5005314;28;20057;-61
2021/04/07 05:54:57;;;;;;;6.53;4.22;;;;;;;;;;5004200;28;20045;-65
2021/04/07 05:57:24;;;;;;;7.13;5.10;;;;;;;;;;5003023;28;20131;-62
2021/04/07 05:59:52;;;;;;;10.18;5.28;;;;;;;;;;5003983;28;20389;-62
2021/04/07 06:02:20;;;;;;;5.95;4.45;;;;;;;;;;5004299;28;20152;-60
2021/04/07 06:04:47;;;;;;;9.50;4.90;;;;;;;;;;4998582;28;20046;-60
2021/04/07 06:07:15;;;;;;;7.00;4.78;;;;;;;;;;4990683;28;20054;-61
2021/04/07 06:09:45;;;;;;;8.48;4.53;;;;;;;;;;5003297;28;20056;-60
2021/04/07 06:12:12;;;;;;;8.40;4.28;;;;;;;;;;5003178;28;20081;-61
2021/04/07 06:14:40;;;;;;;7.90;4.55;;;;;;;;;;5004509;28;20421;-59
2021/04/07 06:17:08;;;;;;;8.50;4.95;;;;;;;;;;5002972;28;20057;-60
2021/04/07 06:19:36;;;;;;;7.80;4.72;;;;;;;;;;5002539;28;20261;-60
2021/04/07 06:22:04;;;;;;;8.50;4.47;;;;;;;;;;5004167;28;20083;-60
2021/04/07 06:24:31;;;;;;;7.45;5.00;;;;;;;;;;5003369;28;20543;-61
2021/04/07 06:26:59;;;;;;;7.18;4.70;;;;;;;;;;4998048;28;20477;-61
2021/04/07 06:29:26;;;;;;;9.27;5.07;;;;;;;;;;5003276;28;20077;-60
2021/04/07 06:31:53;;;;;;;6.53;4.13;;;;;;;;;;4999606;28;20060;-60
2021/04/07 06:34:21;;;;;;;6.78;4.43;;;;;;;;;;5000202;28;20079;-60
2021/04/07 06:36:54;;;;;;;8.55;4.65;;;;;;;;;;4997554;28;20050;-60
2021/04/07 06:39:22;;;;;;;10.25;4.70;;;;;;;;;;5003032;28;20061;-61
2021/04/07 06:41:49;;;;;;;8.55;5.28;;;;;;;;;;5001253;28;20454;-61
2021/04/07 06:44:18;;;;;;;6.70;4.35;;;;;;;;;;5001380;28;20100;-58
2021/04/07 06:46:46;;;;;;;7.15;4.32;;;;;;;;;;5002650;28;20066;-60
2021/04/07 06:49:14;;;;;;;9.98;4.88;;;;;;;;;;5003989;28;20334;-60
2021/04/07 06:51:42;;;;;;;6.47;4.68;;;;;;;;;;5000213;28;20141;-60
2021/04/07 06:54:10;;;;;;;8.85;4.72;;;;;;;;;;5003281;28;20106;-60
2021/04/07 06:56:39;;;;;;;10.00;4.50;;;;;;;;;;5002820;28;20133;-60
2021/04/07 06:59:06;;;;;;;9.25;3.95;;;;;;;;;;5003344;28;20050;-60
2021/04/07 07:01:34;;;;;;;10.05;4.70;;;;;;;;;;5001627;28;20081;-60
2021/04/07 07:04:01;;;;;;;6.18;4.10;;;;;;;;;;4994210;28;20526;-61
2021/04/07 07:06:30;;;;;;;6.88;4.00;;;;;;;;;;4976057;28;20094;-61
2021/04/07 07:08:58;;;;;;;6.95;4.45;;;;;;;;;;4964294;28;20399;-61
2021/04/07 07:11:28;;;;;;;9.85;3.97;;;;;;;;;;4980773;28;20050;-60
2021/04/07 07:13:58;;;;;;;6.10;4.03;;;;;;;;;;4983315;28;20050;-61
2021/04/07 07:16:26;;;;;;;6.22;3.75;;;;;;;;;;4982280;28;20076;-61
2021/04/07 07:18:54;;;;;;;5.90;3.83;;;;;;;;;;4982343;28;20594;-60
2021/04/07 07:21:22;;;;;;;10.00;4.05;;;;;;;;;;4982359;28;20073;-60
2021/04/07 07:23:50;;;;;;;8.07;3.58;;;;;;;;;;4982658;28;20077;-59
2021/04/07 07:26:20;;;;;;;7.60;5.30;;;;;;;;;;4983081;28;20126;-60
2021/04/07 07:28:51;;;;;;;6.70;3.72;;;;;;;;;;4978178;28;20483;-60
2021/04/07 07:31:19;;;;;;;8.73;3.85;;;;;;;;;;4983261;28;20058;-59
2021/04/07 07:33:47;;;;;;;7.00;4.15;;;;;;;;;;4974039;28;20125;-60
2021/04/07 07:36:15;;;;;;;7.28;3.97;;;;;;;;;;4982900;28;20225;-60
2021/04/07 07:38:48;;;;;;;8.63;4.35;;;;;;;;;;4982601;28;20434;-59
2021/04/07 07:41:19;;;;;;;8.85;4.47;;;;;;;;;;4983445;28;20050;-60
2021/04/07 07:43:47;;;;;;;6.60;4.28;;;;;;;;;;4981842;28;20054;-60
2021/04/07 07:46:17;;;;;;;9.63;4.57;;;;;;;;;;4985788;28;20053;-62
2021/04/07 07:48:46;;;;;;;9.23;4.93;;;;;;;;;;4977605;28;20409;-61
2021/04/07 07:51:17;;;;;;;6.40;4.35;;;;;;;;;;4978589;28;20109;-60
2021/04/07 07:53:46;;;;;;;7.93;4.15;;;;;;;;;;4979030;28;20062;-61
2021/04/07 07:56:15;;;;;;;12.77;4.18;;;;;;;;;;4979078;28;20057;-61
2021/04/07 07:58:43;;;;;;;7.72;4.07;;;;;;;;;;4980822;28;20042;-61
2021/04/07 08:01:13;;;;;;;8.73;5.50;;;;;;;;;;4982354;28;20109;-61
2021/04/07 08:03:43;;;;;;;5.22;3.78;;;;;;;;;;4981916;28;20279;-60
2021/04/07 08:06:11;;;;;;;7.05;4.38;;;;;;;;;;4970166;28;20057;-60
2021/04/07 08:08:48;;;;;;;4.38;2.70;;;;;;;;;;4968802;28;20102;-60
2021/04/07 08:11:16;;;;;;;6.30;3.40;;;;;;;;;;4981907;28;20050;-60
2021/04/07 08:13:46;;;;;;;11.95;3.95;;;;;;;;;;4980400;28;20058;-60
2021/04/07 08:16:14;;;;;;;7.32;4.05;;;;;;;;;;4978055;28;20050;-60
2021/04/07 08:18:45;;;;;;;5.10;3.55;;;;;;;;;;4977285;28;20113;-60
2021/04/07 08:21:14;;;;;;;6.38;3.90;;;;;;;;;;4980331;28;20054;-61
2021/04/07 08:23:43;;;;;;;8.98;4.32;;;;;;;;;;4981814;28;20203;-61
2021/04/07 08:26:11;;;;;;;10.35;5.05;;;;;;;;;;4981726;28;20054;-61
2021/04/07 08:28:40;;;;;;;8.13;3.50;;;;;;;;;;4976836;28;20070;-61
2021/04/07 08:31:12;;;;;;;7.22;4.50;;;;;;;;;;4979483;28;20514;-60
2021/04/07 08:33:40;;;;;;;11.60;4.78;;;;;;;;;;4979494;28;20046;-61
2021/04/07 08:36:09;;;;;;;7.97;4.80;;;;;;;;;;4980574;28;20054;-61
2021/04/07 08:38:37;;;;;;;7.05;4.78;;;;;;;;;;4971874;28;20049;-61
2021/04/07 08:41:11;;;;;;;7.75;4.82;;;;;;;;;;4982012;28;20063;-61
2021/04/07 08:43:38;;;;;;;7.55;4.10;;;;;;;;;;4979566;28;20149;-60
2021/04/07 08:46:13;;;;;;;7.93;4.53;;;;;;;;;;4983111;28;20234;-60
2021/04/07 08:48:41;;;;;;;6.90;4.30;;;;;;;;;;4980867;28;20100;-60
2021/04/07 08:51:11;;;;;;;7.63;4.45;;;;;;;;;;4977197;28;20536;-60
2021/04/07 08:53:40;;;;;;;10.48;4.60;;;;;;;;;;4980511;28;20432;-60
2021/04/07 08:56:09;;;;;;;8.93;4.00;;;;;;;;;;4981579;28;20130;-60
2021/04/07 08:58:48;;;;;;;8.43;4.20;;;;;;;;;;4981617;28;20427;-60
2021/04/07 09:01:19;;;;;;;6.93;3.95;;;;;;;;;;4980640;28;20054;-60
2021/04/07 09:03:47;;;;;;;8.00;3.80;;;;;;;;;;4983243;28;20154;-60
2021/04/07 09:06:16;;;;;;;6.45;4.07;;;;;;;;;;4991432;28;20488;-60
2021/04/07 09:08:56;;;;;;;6.30;4.13;;;;;;;;;;4996262;28;20124;-60
2021/04/07 09:11:27;;;;;;;7.25;3.83;;;;;;;;;;5000305;28;20049;-60
2021/04/07 09:13:59;;;;;;;7.53;3.38;;;;;;;;;;5000612;28;20075;-60
2021/04/07 09:16:31;;;;;;;7.32;3.80;;;;;;;;;;5001255;28;20125;-60
2021/04/07 09:19:12;;;;;;;7.13;3.38;;;;;;;;;;5003302;28;20068;-61
2021/04/07 09:21:41;;;;;;;9.40;3.78;;;;;;;;;;5004878;28;20100;-61
2021/04/07 09:24:17;;;;;;;7.80;3.35;;;;;;;;;;5005830;28;20052;-61
2021/04/07 09:26:46;;;;;;;8.38;3.17;;;;;;;;;;5001300;28;20417;-61
2021/04/07 09:29:15;;;;;;;7.75;3.33;;;;;;;;;;5006512;28;20042;-60
2021/04/07 09:31:44;;;;;;;7.82;3.25;;;;;;;;;;5007738;28;20081;-61
2021/04/07 09:34:13;;;;;;;7.75;3.22;;;;;;;;;;5002814;28;20053;-60
2021/04/07 09:36:43;;;;;;;6.70;3.45;;;;;;;;;;5006202;28;20038;-60
2021/04/07 09:39:12;;;;;;;11.68;3.50;;;;;;;;;;5004697;28;20069;-60
2021/04/07 09:41:42;;;;;;;8.95;3.83;;;;;;;;;;5004217;28;20056;-60
2021/04/07 09:44:10;;;;;;;6.05;3.78;;;;;;;;;;5006546;28;20046;-61
2021/04/07 09:46:39;;;;;;;6.82;3.58;;;;;;;;;;5005319;28;20087;-60
2021/04/07 09:49:08;;;;;;;6.35;3.65;;;;;;;;;;5001859;28;20489;-60
2021/04/07 09:51:36;;;;;;;6.97;3.45;;;;;;;;;;5006910;28;20064;-60
2021/04/07 09:54:12;;;;;;;6.07;3.15;;;;;;;;;;5007098;28;20046;-60
2021/04/07 09:56:50;;;;;;;7.45;2.95;;;;;;;;;;5007309;28;20219;-60
2021/04/07 09:59:20;;;;;;;4.05;2.58;;;;;;;;;;5006464;28;20048;-60
2021/04/07 10:01:47;;;;;;;5.38;3.08;;;;;;;;;;5005330;28;20049;-61
2021/04/07 10:04:15;;;;;;;4.22;2.42;;;;;;;;;;5003730;28;20108;-61
2021/04/07 10:06:43;;;;;;;7.10;2.45;;;;;;;;;;5001473;28;20327;-61
2021/04/07 10:09:12;;;;;;;3.97;2.50;;;;;;;;;;5006277;28;20433;-61
2021/04/07 10:11:40;;;;;;;3.47;2.15;;;;;;;;;;5006615;28;20049;-61
2021/04/07 10:14:08;;;;;;;4.88;2.30;;;;;;;;;;5006349;28;20058;-61
2021/04/07 10:16:37;;;;;;;5.93;2.50;;;;;;;;;;5005544;28;20441;-60
2021/04/07 10:19:08;;;;;;;7.82;2.10;;;;;;;;;;5004823;28;20049;-60
2021/04/07 10:21:35;;;;;;;4.88;2.83;;;;;;;;;;4998352;28;20057;-60
2021/04/07 10:24:04;;;;;;;3.53;2.10;;;;;;;;;;5002413;28;20148;-60
2021/04/07 10:26:33;;;;;;;5.47;2.60;;;;;;;;;;5001738;28;20816;-60
2021/04/07 10:29:04;;;;;;;7.05;3.17;;;;;;;;;;5005374;28;20054;-60
2021/04/07 10:31:32;;;;;;;5.93;3.25;;;;;;;;;;5005566;28;20555;-60
2021/04/07 10:34:04;;;;;;;6.90;2.33;;;;;;;;;;5006433;28;20389;-60
2021/04/07 10:36:32;;;;;;;9.60;3.75;;;;;;;;;;5006235;28;20076;-61
2021/04/07 10:39:00;;;;;;;6.40;2.75;;;;;;;;;;5006573;28;20104;-61
2021/04/07 10:41:28;;;;;;;6.22;2.75;;;;;;;;;;5005194;28;20042;-61
2021/04/07 10:43:57;;;;;;;5.38;1.98;;;;;;;;;;5004485;28;20049;-61
2021/04/07 10:46:33;;;;;;;2.75;1.33;;;;;;;;;;5006165;28;20405;-61
2021/04/07 10:49:01;;;;;;;4.00;1.67;;;;;;;;;;5011869;28;20057;-60
2021/04/07 10:51:30;;;;;;;15.25;3.38;;;;;;;;;;5004568;28;20132;-61
2021/04/07 10:53:59;;;;;;;3.60;1.52;;;;;;;;;;5006009;28;20509;-61
2021/04/07 10:56:28;;;;;;;6.05;1.80;;;;;;;;;;5006539;28;20041;-61
2021/04/07 10:59:01;;;;;;;4.75;1.77;;;;;;;;;;5004624;28;20038;-61
2021/04/07 11:01:29;;;;;;;4.75;2.20;;;;;;;;;;5004409;28;20046;-61
2021/04/07 11:04:12;;;;;;;4.20;2.08;;;;;;;;;;5000856;28;20088;-60
2021/04/07 11:06:40;;;;;;;6.88;1.92;;;;;;;;;;5003455;28;20053;-60
2021/04/07 11:09:08;;;;;;;6.32;2.40;;;;;;;;;;5005163;28;20069;-60
2021/04/07 11:11:39;;;;;;;5.95;2.55;;;;;;;;;;5001480;28;20049;-60
2021/04/07 11:14:09;;;;;;;6.05;2.35;;;;;;;;;;5004985;28;20104;-61
2021/04/07 11:16:36;;;;;;;5.95;2.67;;;;;;;;;;5004965;28;20049;-61
2021/04/07 11:19:14;;;;;;;6.72;2.10;;;;;;;;;;5004989;28;20053;-61
2021/04/07 11:21:42;;;;;;;1.88;1.20;;;;;;;;;;5004356;28;20381;-61
2021/04/07 11:24:11;;;;;;;2.45;1.33;;;;;;;;;;5004896;28;20086;-61
2021/04/07 11:26:39;;;;;;;4.03;1.15;;;;;;;;;;4999931;28;20041;-61
2021/04/07 11:29:08;;;;;;;3.63;1.30;;;;;;;;;;5005241;28;20048;-61
2021/04/07 11:31:35;;;;;;;4.82;1.23;;;;;;;;;;5005230;28;20081;-61
2021/04/07 11:34:06;;;;;;;4.38;1.17;;;;;;;;;;5005104;28;20053;-60
2021/04/07 11:36:52;;;;;;;4.35;1.30;;;;;;;;;;5003546;28;20144;-60
2021/04/07 11:39:26;;;;;;;7.05;1.70;;;;;;;;;;5005139;28;20056;-60
2021/04/07 11:42:08;;;;;;;8.48;1.65;;;;;;;;;;5001833;28;20057;-60
2021/04/07 11:44:37;;;;;;;2.55;1.40;;;;;;;;;;4997993;28;20462;-59
2021/04/07 11:47:05;;;;;;;7.38;2.22;;;;;;;;;;5003019;28;20049;-61
2021/04/07 11:49:35;;;;;;;10.30;1.80;;;;;;;;;;5004510;28;20060;-61
2021/04/07 11:52:04;;;;;;;5.03;1.52;;;;;;;;;;5003856;28;20485;-61
2021/04/07 11:54:31;;;;;;;3.35;1.42;;;;;;;;;;5005143;28;20224;-61
2021/04/07 11:56:59;;;;;;;6.50;1.95;;;;;;;;;;5004312;28;20061;-61
2021/04/07 11:59:27;;;;;;;4.13;1.30;;;;;;;;;;5000116;28;20541;-61
2021/04/07 12:01:57;;;;;;;4.07;1.40;;;;;;;;;;5003643;28;20155;-61
2021/04/07 12:04:27;;;;;;;3.60;1.40;;;;;;;;;;5005124;28;20076;-60
2021/04/07 12:06:55;;;;;;;3.42;1.50;;;;;;;;;;5002915;28;20049;-61
2021/04/07 12:09:22;;;;;;;2.20;1.38;;;;;;;;;;5019469;28;20111;-60
2021/04/07 12:11:50;;;;;;;4.30;1.30;;;;;;;;;;5005758;28;20038;-61
2021/04/07 12:14:18;;;;;;;4.93;1.38;;;;;;;;;;5001923;28;20081;-61
2021/04/07 12:16:46;;;;;;;2.58;1.23;;;;;;;;;;5004785;28;20053;-61
2021/04/07 12:19:15;;;;;;;3.50;1.52;;;;;;;;;;5003395;28;20077;-61
2021/04/07 12:21:44;;;;;;;6.85;1.50;;;;;;;;;;5003773;28;20077;-61
2021/04/07 12:24:12;;;;;;;3.13;1.50;;;;;;;;;;5004331;28;20052;-61
2021/04/07 12:26:40;;;;;;;3.33;1.70;;;;;;;;;;5005188;28;20045;-61
2021/04/07 12:29:07;;;;;;;6.55;1.40;;;;;;;;;;5000081;28;20116;-60
2021/04/07 12:31:35;;;;;;;5.00;2.05;;;;;;;;;;5003814;28;20045;-61
2021/04/07 12:34:03;;;;;;;5.57;1.33;;;;;;;;;;5003997;28;20061;-59
2021/04/07 12:36:33;;;;;;;4.28;1.48;;;;;;;;;;5002550;28;20057;-60
2021/04/07 12:39:01;;;;;;;2.72;2.08;;;;;;;;;;5003865;28;20135;-60
2021/04/07 12:41:32;;;;;;;5.03;1.80;;;;;;;;;;5004523;28;20115;-60
2021/04/07 12:44:00;;;;;;;5.43;1.33;;;;;;;;;;5004863;28;20045;-61
2021/04/07 12:46:28;;;;;;;2.67;1.40;;;;;;;;;;5010969;28;20061;-61
2021/04/07 12:48:56;;;;;;;6.35;2.35;;;;;;;;;;5003545;28;20446;-61
2021/04/07 12:51:24;;;;;;;7.38;1.92;;;;;;;;;;5004053;28;20057;-62
2021/04/07 12:53:53;;;;;;;5.10;1.92;;;;;;;;;;5012371;28;20077;-61
2021/04/07 12:56:21;;;;;;;4.72;1.60;;;;;;;;;;5001778;28;20116;-62
2021/04/07 12:58:51;;;;;;;7.05;2.00;;;;;;;;;;5003075;28;20513;-61
2021/04/07 13:01:18;;;;;;;5.00;1.83;;;;;;;;;;5002561;28;20049;-61
2021/04/07 13:03:47;;;;;;;14.20;2.25;;;;;;;;;;5002702;28;20054;-61
2021/04/07 13:06:14;;;;;;;6.47;1.77;;;;;;;;;;4997915;28;20042;-61
2021/04/07 13:08:42;;;;;;;4.80;2.13;;;;;;;;;;4996695;28;20058;-61
2021/04/07 13:11:11;;;;;;;4.25;2.47;;;;;;;;;;5003082;28;20054;-61
2021/04/07 13:13:40;;;;;;;5.57;1.90;;;;;;;;;;5003744;28;20537;-61
2021/04/07 13:16:08;;;;;;;7.72;1.98;;;;;;;;;;5003345;28;20046;-61
2021/04/07 13:18:36;;;;;;;3.42;1.80;;;;;;;;;;5003581;28;20064;-61
2021/04/07 13:21:09;;;;;;;4.00;1.70;;;;;;;;;;5003664;28;20053;-60
2021/04/07 13:23:37;;;;;;;4.50;1.50;;;;;;;;;;4998524;28;20081;-61
2021/04/07 13:26:06;;;;;;;2.65;1.52;;;;;;;;;;5004478;28;20346;-61
2021/04/07 13:28:51;;;;;;;;;;;;;;;;;;5004581;28;20053;-61
2021/04/07 13:31:21;;;;;;;4.97;1.80;;;;;;;;;;5003536;28;20318;-61
2021/04/07 13:33:51;;;;;;;4.32;1.77;;;;;;;;;;5002974;28;20331;-61
2021/04/07 13:36:22;;;;;;;3.22;1.80;;;;;;;;;;5004410;28;20790;-61
2021/04/07 13:38:54;;;;;;;2.83;2.30;;;;;;;;;;5004154;28;20386;-61
2021/04/07 13:44:07;;;;;;;3.83;2.00;;;;;;;;;;5002101;28;20505;-61
2021/04/07 13:46:36;;;;;;;3.17;1.58;;;;;;;;;;5003724;28;20046;-61
2021/04/07 13:49:04;;;;;;;1.88;1.42;;;;;;;;;;5003336;28;20139;-61
2021/04/07 13:51:32;;;;;;;2.13;1.80;;;;;;;;;;5003614;28;20046;-61
2021/04/07 13:54:00;;;;;;;2.50;1.60;;;;;;;;;;5003917;28;20062;-61
2021/04/07 13:56:37;;;;;;;3.35;2.00;;;;;;;;;;5003638;28;20549;-61
2021/04/07 13:59:06;;;;;;;5.25;1.70;;;;;;;;;;5001046;28;20072;-61
2021/04/07 14:01:34;;;;;;;1.80;1.30;;;;;;;;;;5018821;28;20395;-61
2021/04/07 14:04:03;;;;;;;3.25;1.70;;;;;;;;;;5003304;28;20417;-61
2021/04/07 14:06:31;;;;;;;4.63;1.58;;;;;;;;;;4989336;28;20387;-61
2021/04/07 14:09:00;;;;;;;3.45;1.50;;;;;;;;;;5010134;28;20059;-61
2021/04/07 14:11:28;;;;;;;5.50;1.85;;;;;;;;;;5007137;28;20141;-61
2021/04/07 14:13:56;;;;;;;3.05;1.42;;;;;;;;;;5004289;28;20050;-62
2021/04/07 14:16:24;;;;;;;2.08;1.48;;;;;;;;;;5000917;28;20050;-61
2021/04/07 14:18:52;;;;;;;4.68;1.83;;;;;;;;;;5006977;28;20437;-61
2021/04/07 14:21:21;;;;;;;3.70;1.70;;;;;;;;;;5003174;28;20505;-61
2021/04/07 14:23:50;;;;;;;7.38;2.05;;;;;;;;;;5009089;28;20455;-61
2021/04/07 14:26:17;;;;;;;4.45;1.60;;;;;;;;;;5005480;28;20057;-61
2021/04/07 14:28:48;;;;;;;4.90;2.10;;;;;;;;;;5005624;28;20042;-61
2021/04/07 14:31:16;;;;;;;3.70;1.70;;;;;;;;;;4990243;28;20050;-61
2021/04/07 14:33:44;;;;;;;4.10;2.15;;;;;;;;;;4996025;28;20057;-61
2021/04/07 14:36:13;;;;;;;3.42;1.75;;;;;;;;;;5005148;28;20082;-61
2021/04/07 14:38:42;;;;;;;6.20;1.90;;;;;;;;;;4994888;28;20054;-62
2021/04/07 14:41:11;;;;;;;2.65;1.52;;;;;;;;;;5004553;28;20556;-62
2021/04/07 14:43:38;;;;;;;4.10;2.03;;;;;;;;;;5005768;28;20133;-61
2021/04/07 14:46:10;;;;;;;6.13;1.80;;;;;;;;;;4997306;28;20081;-61
2021/04/07 14:48:38;;;;;;;6.97;2.00;;;;;;;;;;5004562;28;20052;-61
2021/04/07 14:51:17;;;;;;;3.10;1.90;;;;;;;;;;5002321;28;20056;-61
2021/04/07 14:53:47;;;;;;;8.07;1.98;;;;;;;;;;5005400;28;20108;-61
2021/04/07 14:56:14;;;;;;;9.05;1.70;;;;;;;;;;5004663;28;20046;-61